createdAt,value
2019-03-08T00:01:09.036Z,0.63
2019-03-08T00:03:39.405Z,0.90
2019-03-08T00:06:09.445Z,0.60
2019-03-08T00:08:39.559Z,0.57
2019-03-08T00:11:10.041Z,0.70
2019-03-08T00:13:40.115Z,0.70
2019-03-08T00:16:10.185Z,0.70
2019-03-08T00:18:40.268Z,0.70
2019-03-08T00:21:10.291Z,0.60
2019-03-08T00:23:40.839Z,0.60
2019-03-08T00:26:11.252Z,0.60
2019-03-08T00:28:41.516Z,0.63
2019-03-08T00:31:12.207Z,0.63
2019-03-08T00:33:42.227Z,0.70
2019-03-08T00:36:12.527Z,1.00
2019-03-08T00:38:42.547Z,0.60
2019-03-08T00:41:12.946Z,0.70
2019-03-08T00:43:43.188Z,0.53
2019-03-08T00:46:13.564Z,0.70
2019-03-08T00:48:43.593Z,0.80
2019-03-08T00:51:13.753Z,0.67
2019-03-08T00:53:44.087Z,0.70
2019-03-08T00:56:14.376Z,0.50
2019-03-08T00:58:44.750Z,0.60
2019-03-08T01:01:14.836Z,0.60
2019-03-08T01:03:45.587Z,0.50
2019-03-08T01:06:15.909Z,0.70
2019-03-08T01:08:46.300Z,0.77
2019-03-08T01:11:16.645Z,0.70
2019-03-08T01:13:46.721Z,0.60
2019-03-08T01:16:18.018Z,0.60
2019-03-08T01:18:48.037Z,0.97
2019-03-08T01:21:18.720Z,0.60
2019-03-08T01:23:49.308Z,0.67
2019-03-08T01:26:19.653Z,0.50
2019-03-08T01:28:49.955Z,0.70
2019-03-08T01:31:20.289Z,0.70
2019-03-08T01:33:50.596Z,0.70
2019-03-08T01:36:20.687Z,0.70
2019-03-08T01:38:51.092Z,0.60
2019-03-08T01:41:21.645Z,0.67
2019-03-08T01:43:51.940Z,0.60
2019-03-08T01:46:22.007Z,0.70
2019-03-08T01:48:52.022Z,0.70
2019-03-08T01:51:22.562Z,0.63
2019-03-08T01:53:52.844Z,0.60
2019-03-08T01:56:22.905Z,0.53
2019-03-08T01:58:52.931Z,0.57
2019-03-08T02:01:23.355Z,0.60
2019-03-08T02:03:53.752Z,0.83
2019-03-08T02:06:24.083Z,0.60
2019-03-08T02:08:54.116Z,0.87
2019-03-08T02:11:24.261Z,0.60
2019-03-08T02:13:54.520Z,0.60
2019-03-08T02:16:25.779Z,1.20
2019-03-08T02:18:56.064Z,0.60
2019-03-08T02:21:26.529Z,0.60
2019-03-08T02:23:56.545Z,0.60
2019-03-08T02:26:26.794Z,0.90
2019-03-08T02:28:57.264Z,0.80
2019-03-08T02:31:27.572Z,0.60
2019-03-08T02:33:58.068Z,0.57
2019-03-08T02:36:28.444Z,0.60
2019-03-08T02:38:58.493Z,0.70
2019-03-08T02:41:29.011Z,0.60
2019-03-08T02:43:59.028Z,0.90
2019-03-08T02:46:29.324Z,0.60
2019-03-08T02:48:59.640Z,0.80
2019-03-08T02:51:30.049Z,0.63
2019-03-08T02:54:00.500Z,0.60
2019-03-08T02:56:30.612Z,0.67
2019-03-08T02:59:01.428Z,0.57
2019-03-08T03:01:31.989Z,0.60
2019-03-08T03:04:02.274Z,0.50
2019-03-08T03:06:32.736Z,0.70
2019-03-08T03:09:03.856Z,0.90
2019-03-08T03:11:35.640Z,0.60
2019-03-08T03:14:05.716Z,0.80
2019-03-08T03:16:36.002Z,0.60
2019-03-08T03:19:06.688Z,1.63
2019-03-08T03:21:36.963Z,0.80
2019-03-08T03:24:07.901Z,0.53
2019-03-08T03:26:38.448Z,0.40
2019-03-08T03:29:08.524Z,0.50
2019-03-08T03:31:38.868Z,0.70
2019-03-08T03:34:09.556Z,0.57
2019-03-08T03:36:40.209Z,0.80
2019-03-08T03:39:10.277Z,0.50
2019-03-08T03:41:40.577Z,0.60
2019-03-08T03:44:11.617Z,0.70
2019-03-08T03:46:41.715Z,0.47
2019-03-08T03:49:11.809Z,0.60
2019-03-08T03:51:42.640Z,0.60
2019-03-08T03:54:12.972Z,0.80
2019-03-08T03:56:43.276Z,0.60
2019-03-08T03:59:13.409Z,0.60
2019-03-08T04:01:46.720Z,0.67
2019-03-08T04:04:16.818Z,0.60
2019-03-08T04:06:47.420Z,0.60
2019-03-08T04:09:17.665Z,0.50
2019-03-08T04:11:47.737Z,0.50
2019-03-08T04:14:17.980Z,0.60
2019-03-08T04:16:48.429Z,0.57
2019-03-08T04:19:18.724Z,0.70
2019-03-08T04:21:49.711Z,0.60
2019-03-08T04:24:20.396Z,0.57
2019-03-08T04:26:52.164Z,0.60
2019-03-08T04:29:22.627Z,0.50
2019-03-08T04:31:52.999Z,0.60
2019-03-08T04:34:23.217Z,1.03
2019-03-08T04:36:53.277Z,0.50
2019-03-08T04:39:23.427Z,0.60
2019-03-08T04:41:54.028Z,1.13
2019-03-08T04:44:24.633Z,0.70
2019-03-08T04:46:55.255Z,0.70
2019-03-08T04:49:25.390Z,0.60
2019-03-08T04:51:55.828Z,0.53
2019-03-08T04:54:26.389Z,0.60
2019-03-08T04:56:56.434Z,0.50
2019-03-08T04:59:26.521Z,0.70
2019-03-08T05:01:56.582Z,0.53
2019-03-08T05:04:26.968Z,0.70
2019-03-08T05:06:57.949Z,0.60
2019-03-08T05:09:28.116Z,0.60
2019-03-08T05:11:58.419Z,0.57
2019-03-08T05:14:28.459Z,0.90
2019-03-08T05:16:58.760Z,0.53
2019-03-08T05:19:29.424Z,0.60
2019-03-08T05:21:59.723Z,0.70
2019-03-08T05:24:30.965Z,0.60
2019-03-08T05:27:00.992Z,0.50
2019-03-08T05:29:31.287Z,0.60
2019-03-08T05:32:01.396Z,0.50
2019-03-08T05:34:31.552Z,0.70
2019-03-08T05:37:01.980Z,0.60
2019-03-08T05:39:32.190Z,0.60
2019-03-08T05:42:02.957Z,0.50
2019-03-08T05:44:33.604Z,0.70
2019-03-08T05:47:11.514Z,0.63
2019-03-08T05:49:43.504Z,0.60
2019-03-08T05:52:13.856Z,0.50
2019-03-08T05:54:43.953Z,0.50
2019-03-08T05:57:14.362Z,0.60
2019-03-08T05:59:45.539Z,0.60
2019-03-08T06:02:15.840Z,1.03
2019-03-08T06:04:45.917Z,0.80
2019-03-08T06:07:16.533Z,0.77
2019-03-08T06:09:46.607Z,0.70
2019-03-08T06:12:17.165Z,0.50
2019-03-08T06:14:47.301Z,0.60
2019-03-08T06:17:17.471Z,0.50
2019-03-08T06:19:47.579Z,0.60
2019-03-08T06:22:17.929Z,0.60
2019-03-08T06:24:48.264Z,0.50
2019-03-08T06:27:18.352Z,0.70
2019-03-08T06:29:48.624Z,0.70
2019-03-08T06:32:18.809Z,0.50
2019-03-08T06:34:49.599Z,0.57
2019-03-08T06:37:19.932Z,0.50
2019-03-08T06:39:50.400Z,0.70
2019-03-08T06:42:20.930Z,0.60
2019-03-08T06:44:51.608Z,0.60
2019-03-08T06:47:21.960Z,0.60
2019-03-08T06:49:53.449Z,0.60
2019-03-08T06:52:24.024Z,0.70
2019-03-08T06:54:54.703Z,0.60
2019-03-08T06:57:24.856Z,1.00
2019-03-08T06:59:59.463Z,0.60
2019-03-08T07:02:30.299Z,0.50
2019-03-08T07:05:01.288Z,0.70
2019-03-08T07:07:32.025Z,0.60
2019-03-08T07:10:04.202Z,0.70
2019-03-08T07:12:34.621Z,0.60
2019-03-08T07:15:05.646Z,0.53
2019-03-08T07:17:36.083Z,0.63
2019-03-08T07:20:25.478Z,0.67
2019-03-08T07:23:02.337Z,0.80
2019-03-08T07:26:04.103Z,0.60
2019-03-08T07:28:51.948Z,0.50
2019-03-08T07:31:40.404Z,0.60
2019-03-08T07:34:17.345Z,0.60
2019-03-08T07:36:56.434Z,0.73
2019-03-08T07:39:44.312Z,0.60
2019-03-08T07:42:48.665Z,0.50
2019-03-08T07:45:38.130Z,0.80
2019-03-08T07:48:13.792Z,0.70
2019-03-08T07:50:56.876Z,0.60
2019-03-08T07:53:46.357Z,0.80
2019-03-08T07:56:24.993Z,0.60
2019-03-08T07:59:07.000Z,0.77
2019-03-08T08:02:11.259Z,0.60
2019-03-08T08:05:06.849Z,0.97
2019-03-08T08:08:02.557Z,0.50
2019-03-08T08:10:50.764Z,1.00
2019-03-08T08:13:28.332Z,0.60
2019-03-08T08:16:07.132Z,0.60
2019-03-08T08:19:11.472Z,0.93
2019-03-08T08:21:59.209Z,1.07
2019-03-08T08:24:48.168Z,0.70
2019-03-08T08:27:40.811Z,1.07
2019-03-08T08:30:30.741Z,0.60
2019-03-08T08:33:35.721Z,0.67
2019-03-08T08:36:23.566Z,0.80
2019-03-08T08:39:20.074Z,0.60
2019-03-08T08:42:00.715Z,0.60
2019-03-08T08:44:38.327Z,0.80
2019-03-08T08:47:19.348Z,0.70
2019-03-08T08:50:01.217Z,1.47
2019-03-08T08:52:38.516Z,0.73
2019-03-08T08:55:46.225Z,0.60
2019-03-08T08:58:24.940Z,0.70
2019-03-08T09:01:07.888Z,0.80
2019-03-08T09:03:48.024Z,0.70
2019-03-08T09:06:28.824Z,0.73
2019-03-08T09:09:10.932Z,0.90
2019-03-08T09:12:03.078Z,0.93
2019-03-08T09:14:38.716Z,0.70
2019-03-08T09:17:14.987Z,0.90
2019-03-08T09:20:03.485Z,1.93
2019-03-08T09:22:55.727Z,0.80
2019-03-08T09:25:33.900Z,1.23
2019-03-08T09:28:11.216Z,0.90
2019-03-08T09:30:46.424Z,0.93
2019-03-08T09:33:25.277Z,0.80
2019-03-08T09:36:05.376Z,0.70
2019-03-08T09:39:01.259Z,1.00
2019-03-08T09:41:40.206Z,0.77
2019-03-08T09:44:28.939Z,0.97
2019-03-08T09:47:09.112Z,0.60
2019-03-08T09:50:01.328Z,0.70
2019-03-08T09:52:59.612Z,0.90
2019-03-08T09:55:50.173Z,1.17
2019-03-08T09:58:38.564Z,0.80
2019-03-08T10:01:27.058Z,0.70
2019-03-08T10:04:19.398Z,1.10
2019-03-08T10:07:17.788Z,0.90
2019-03-08T10:09:57.472Z,0.80
2019-03-08T10:12:49.945Z,1.23
2019-03-08T10:15:57.412Z,1.00
2019-03-08T10:18:49.112Z,1.00
2019-03-08T10:21:38.613Z,1.10
2019-03-08T10:24:19.089Z,1.00
2019-03-08T10:27:08.352Z,1.50
2019-03-08T10:29:54.488Z,1.10
2019-03-08T10:32:37.304Z,1.10
2019-03-08T10:35:35.799Z,1.87
2019-03-08T10:38:22.139Z,1.20
2019-03-08T10:41:00.196Z,1.40
2019-03-08T10:43:35.083Z,1.20
2019-03-08T10:46:36.478Z,1.20
2019-03-08T10:49:18.039Z,1.20
2019-03-08T10:52:17.538Z,1.20
2019-03-08T10:55:06.546Z,1.10
2019-03-08T10:58:14.872Z,1.00
2019-03-08T11:00:59.836Z,1.20
2019-03-08T11:03:48.992Z,0.90
2019-03-08T11:06:38.397Z,1.27
2019-03-08T11:09:49.352Z,1.00
2019-03-08T11:12:47.900Z,1.00
2019-03-08T11:15:49.573Z,0.90
2019-03-08T11:18:44.756Z,1.17
2019-03-08T11:21:34.387Z,0.90
2019-03-08T11:24:29.839Z,1.17
2019-03-08T11:27:19.324Z,0.70
2019-03-08T11:29:59.260Z,1.30
2019-03-08T11:32:48.457Z,1.30
2019-03-08T11:35:24.824Z,1.00
2019-03-08T11:38:09.612Z,1.33
2019-03-08T11:41:00.582Z,0.73
2019-03-08T11:43:46.349Z,0.50
2019-03-08T11:46:42.519Z,0.70
2019-03-08T11:49:42.679Z,0.60
2019-03-08T11:52:22.772Z,0.63
2019-03-08T11:55:19.644Z,0.63
2019-03-08T11:58:07.728Z,0.70
2019-03-08T12:01:06.061Z,0.67
2019-03-08T12:03:54.124Z,0.70
2019-03-08T12:06:34.928Z,0.60
2019-03-08T12:09:36.548Z,0.60
2019-03-08T12:12:26.594Z,0.57
2019-03-08T12:15:20.965Z,0.70
2019-03-08T12:18:19.076Z,0.70
2019-03-08T12:20:55.940Z,0.70
2019-03-08T12:23:35.568Z,0.53
2019-03-08T12:26:36.845Z,0.60
2019-03-08T12:29:34.120Z,0.60
2019-03-08T12:32:39.547Z,0.70
2019-03-08T12:35:27.783Z,0.50
2019-03-08T12:38:08.132Z,1.50
2019-03-08T12:40:57.037Z,0.77
2019-03-08T12:43:46.629Z,0.83
2019-03-08T12:46:24.514Z,0.90
2019-03-08T12:49:23.235Z,0.97
2019-03-08T12:52:02.035Z,1.10
2019-03-08T12:54:54.793Z,1.17
2019-03-08T12:57:43.004Z,0.80
2019-03-08T13:00:27.051Z,1.03
2019-03-08T13:03:22.539Z,1.03
2019-03-08T13:06:06.474Z,2.63
2019-03-08T13:08:47.721Z,1.40
2019-03-08T13:11:18.309Z,1.93
2019-03-08T13:13:48.578Z,1.17
2019-03-08T13:16:19.083Z,1.23
2019-03-08T13:18:49.498Z,1.40
2019-03-08T13:21:19.621Z,1.53
2019-03-08T13:23:50.730Z,1.03
2019-03-08T13:26:21.524Z,0.83
2019-03-08T13:28:51.832Z,0.80
2019-03-08T13:31:21.961Z,0.53
2019-03-08T13:33:54.145Z,0.60
2019-03-08T13:36:24.835Z,0.90
2019-03-08T13:38:55.802Z,1.67
2019-03-08T13:41:25.916Z,1.53
2019-03-08T13:43:56.077Z,1.13
2019-03-08T13:46:26.309Z,1.10
2019-03-08T13:48:56.520Z,0.97
2019-03-08T13:51:26.697Z,1.00
2019-03-08T13:53:57.209Z,1.00
2019-03-08T13:56:28.744Z,1.00
2019-03-08T13:59:03.151Z,1.27
2019-03-08T14:01:34.440Z,1.10
2019-03-08T14:04:04.965Z,1.10
2019-03-08T14:06:35.292Z,0.97
2019-03-08T14:09:07.716Z,1.13
2019-03-08T14:11:37.881Z,1.67
2019-03-08T14:14:08.084Z,1.33
2019-03-08T14:16:38.265Z,0.80
2019-03-08T14:19:08.593Z,1.77
2019-03-08T14:21:39.963Z,1.90
2019-03-08T14:24:10.378Z,1.03
2019-03-08T14:26:40.984Z,1.10
2019-03-08T14:29:11.817Z,1.37
2019-03-08T14:31:49.221Z,0.90
2019-03-08T14:34:19.666Z,1.13
2019-03-08T14:36:50.037Z,0.90
2019-03-08T14:39:20.393Z,1.00
2019-03-08T14:41:56.836Z,0.80
2019-03-08T14:44:45.444Z,1.30
2019-03-08T14:47:20.239Z,1.87
2019-03-08T14:49:51.418Z,0.80
2019-03-08T14:52:22.660Z,1.20
2019-03-08T14:54:53.348Z,1.30
2019-03-08T14:57:27.111Z,1.87
2019-03-08T14:59:56.759Z,1.03
2019-03-08T15:02:27.021Z,0.83
2019-03-08T15:04:57.278Z,1.77
2019-03-08T15:07:27.302Z,0.90
2019-03-08T15:09:57.835Z,1.00
2019-03-08T15:12:28.312Z,0.90
2019-03-08T15:14:58.760Z,1.40
2019-03-08T15:17:29.139Z,1.10
2019-03-08T15:19:59.368Z,1.93
2019-03-08T15:22:29.407Z,1.07
2019-03-08T15:24:59.784Z,1.20
2019-03-08T15:27:31.666Z,1.07
2019-03-08T15:30:01.796Z,1.37
2019-03-08T15:32:32.142Z,0.97
2019-03-08T15:35:02.642Z,1.57
2019-03-08T15:37:32.943Z,0.97
2019-03-08T15:40:03.820Z,1.10
2019-03-08T15:42:36.304Z,1.30
2019-03-08T15:45:07.283Z,1.03
2019-03-08T15:47:38.937Z,1.13
2019-03-08T15:50:11.324Z,1.23
2019-03-08T15:52:41.835Z,1.23
2019-03-08T15:55:12.161Z,0.70
2019-03-08T15:57:42.400Z,1.30
2019-03-08T16:00:17.260Z,0.80
2019-03-08T16:02:47.476Z,1.00
2019-03-08T16:05:19.543Z,2.80
2019-03-08T16:07:49.968Z,1.60
2019-03-08T16:10:20.226Z,2.00
2019-03-08T16:12:50.446Z,1.10
2019-03-08T16:15:20.970Z,1.23
2019-03-08T16:17:51.295Z,1.10
2019-03-08T16:20:21.426Z,0.80
2019-03-08T16:22:51.790Z,1.00
2019-03-08T16:25:21.912Z,1.00
2019-03-08T16:27:53.013Z,1.50
2019-03-08T16:30:27.932Z,1.37
2019-03-08T16:33:16.989Z,1.03
2019-03-08T16:36:22.926Z,0.90
2019-03-08T16:39:07.427Z,0.87
2019-03-08T16:42:01.121Z,1.13
2019-03-08T16:45:05.931Z,0.87
2019-03-08T16:47:58.722Z,0.80
2019-03-08T16:50:46.346Z,0.80
2019-03-08T16:53:46.235Z,0.70
2019-03-08T16:56:25.501Z,2.50
2019-03-08T16:59:05.950Z,0.90
2019-03-08T17:01:51.132Z,0.80
2019-03-08T17:04:30.517Z,1.47
2019-03-08T17:07:10.315Z,1.57
2019-03-08T17:09:47.477Z,1.10
2019-03-08T17:12:26.033Z,1.27
2019-03-08T17:15:06.685Z,1.17
2019-03-08T17:17:55.233Z,1.27
2019-03-08T17:20:48.395Z,1.07
2019-03-08T17:23:28.186Z,1.10
2019-03-08T17:26:16.312Z,1.27
2019-03-08T17:29:02.392Z,1.33
2019-03-08T17:31:38.740Z,1.23
2019-03-08T17:34:18.776Z,1.37
2019-03-08T17:36:57.922Z,1.70
2019-03-08T17:39:46.308Z,1.53
2019-03-08T17:42:35.575Z,0.90
2019-03-08T17:45:34.368Z,1.40
2019-03-08T17:48:18.339Z,1.40
2019-03-08T17:51:06.351Z,1.47
2019-03-08T17:53:54.572Z,1.97
2019-03-08T17:56:52.668Z,1.10
2019-03-08T17:59:41.920Z,0.93
2019-03-08T18:02:23.392Z,1.20
2019-03-08T18:05:06.440Z,1.30
2019-03-08T18:07:55.116Z,1.20
2019-03-08T18:10:38.018Z,1.07
2019-03-08T18:13:32.580Z,1.13
2019-03-08T18:16:07.957Z,1.13
2019-03-08T18:18:56.109Z,1.93
2019-03-08T18:21:40.704Z,1.43
2019-03-08T18:24:35.949Z,1.80
2019-03-08T18:27:19.972Z,1.23
2019-03-08T18:29:56.335Z,1.37
2019-03-08T18:32:45.251Z,1.13
2019-03-08T18:35:23.326Z,1.40
2019-03-08T18:38:12.521Z,1.03
2019-03-08T18:40:59.924Z,2.20
2019-03-08T18:43:40.976Z,1.70
2019-03-08T18:46:25.165Z,1.60
2019-03-08T18:49:08.100Z,2.27
2019-03-08T18:51:49.105Z,2.67
2019-03-08T18:54:38.713Z,2.33
2019-03-08T18:57:20.929Z,3.30
2019-03-08T19:00:20.673Z,4.37
2019-03-08T19:03:10.553Z,2.70
2019-03-08T19:05:52.981Z,1.80
2019-03-08T19:08:34.552Z,1.20
2019-03-08T19:11:28.281Z,1.37
2019-03-08T19:14:17.768Z,1.47
2019-03-08T19:17:07.121Z,2.50
2019-03-08T19:20:01.229Z,1.23
2019-03-08T19:22:37.101Z,1.30
2019-03-08T19:25:26.212Z,1.40
2019-03-08T19:28:03.426Z,1.77
2019-03-08T19:30:43.573Z,2.10
2019-03-08T19:33:27.717Z,1.60
2019-03-08T19:36:10.319Z,1.60
2019-03-08T19:38:46.669Z,2.40
2019-03-08T19:41:26.423Z,1.60
2019-03-08T19:44:14.941Z,1.73
2019-03-08T19:47:22.468Z,1.53
2019-03-08T19:50:26.702Z,2.00
2019-03-08T19:53:15.941Z,1.70
2019-03-08T19:56:05.320Z,1.87
2019-03-08T19:58:53.824Z,1.80
2019-03-08T20:01:42.514Z,2.77
2019-03-08T20:04:20.935Z,1.77
2019-03-08T20:07:00.445Z,2.17
2019-03-08T20:09:41.125Z,2.97
2019-03-08T20:12:30.593Z,1.87
2019-03-08T20:15:23.263Z,2.87
2019-03-08T20:17:58.964Z,3.70
2019-03-08T20:20:35.877Z,3.67
2019-03-08T20:23:27.493Z,2.00
2019-03-08T20:26:19.900Z,2.00
2019-03-08T20:29:04.548Z,1.63
2019-03-08T20:31:54.325Z,2.87
2019-03-08T20:34:36.788Z,2.33
2019-03-08T20:37:32.235Z,2.10
2019-03-08T20:40:31.869Z,2.83
2019-03-08T20:43:09.610Z,2.00
2019-03-08T20:46:06.161Z,1.57
2019-03-08T20:48:36.264Z,1.53
2019-03-08T20:51:06.833Z,1.60
2019-03-08T20:53:37.501Z,1.30
2019-03-08T20:56:07.909Z,1.97
2019-03-08T20:58:38.017Z,1.40
2019-03-08T21:01:08.444Z,1.10
2019-03-08T21:03:39.288Z,1.77
2019-03-08T21:06:09.691Z,1.97
2019-03-08T21:08:40.335Z,1.80
2019-03-08T21:11:10.960Z,1.43
2019-03-08T21:13:41.235Z,2.63
2019-03-08T21:16:11.697Z,1.27
2019-03-08T21:18:41.865Z,3.30
2019-03-08T21:21:12.492Z,1.90
2019-03-08T21:23:42.884Z,1.23
2019-03-08T21:26:13.143Z,2.20
2019-03-08T21:28:43.914Z,1.60
2019-03-08T21:31:14.918Z,1.80
2019-03-08T21:33:45.020Z,2.93
2019-03-08T21:36:15.167Z,1.80
2019-03-08T21:38:47.917Z,1.80
2019-03-08T21:41:18.048Z,1.43
2019-03-08T21:43:48.365Z,1.90
2019-03-08T21:46:18.492Z,1.60
2019-03-08T21:48:49.220Z,2.70
2019-03-08T21:51:19.380Z,1.40
2019-03-08T21:53:50.099Z,1.77
2019-03-08T21:56:20.973Z,1.73
2019-03-08T21:58:51.318Z,1.93
2019-03-08T22:01:21.669Z,1.73
2019-03-08T22:03:58.001Z,2.37
2019-03-08T22:06:28.192Z,1.80
2019-03-08T22:09:04.994Z,2.10
2019-03-08T22:11:39.483Z,2.00
2019-03-08T22:14:09.604Z,2.23
2019-03-08T22:16:39.709Z,1.80
2019-03-08T22:19:10.120Z,1.93
2019-03-08T22:21:40.236Z,2.07
2019-03-08T22:24:13.613Z,1.93
2019-03-08T22:26:42.548Z,3.77
2019-03-08T22:29:12.978Z,1.90
2019-03-08T22:31:43.392Z,1.53
2019-03-08T22:34:14.027Z,2.37
2019-03-08T22:36:44.889Z,2.40
2019-03-08T22:39:15.420Z,2.50
2019-03-08T22:41:45.847Z,1.90
2019-03-08T22:44:16.625Z,1.60
2019-03-08T22:46:47.198Z,3.00
2019-03-08T22:49:17.752Z,1.70
2019-03-08T22:51:48.091Z,1.93
2019-03-08T22:54:18.452Z,2.90
2019-03-08T22:56:48.584Z,1.60
2019-03-08T22:59:18.756Z,2.60
2019-03-08T23:01:54.047Z,2.10
2019-03-08T23:04:24.345Z,1.77
2019-03-08T23:06:54.456Z,1.47
2019-03-08T23:09:25.007Z,1.47
2019-03-08T23:11:55.872Z,1.93
2019-03-08T23:14:26.118Z,1.50
2019-03-08T23:16:56.523Z,1.70
2019-03-08T23:19:26.913Z,1.73
2019-03-08T23:25:30.632Z,2.13
2019-03-08T23:28:18.596Z,1.80
2019-03-08T23:30:50.126Z,1.37
2019-03-08T23:33:20.841Z,2.30
2019-03-08T23:35:50.858Z,1.97
2019-03-08T23:38:21.378Z,2.80
2019-03-08T23:40:51.655Z,2.67
2019-03-08T23:43:21.827Z,3.00
2019-03-08T23:45:52.872Z,3.17
2019-03-08T23:48:22.927Z,3.53
2019-03-08T23:50:53.078Z,2.13
2019-03-08T23:53:23.872Z,2.40
2019-03-08T23:55:54.332Z,1.90
2019-03-08T23:58:24.644Z,2.20
